createdAt,value
2017-08-11T00:02:03.455Z,43.50
2017-08-11T00:04:31.709Z,41.27
2017-08-11T00:06:59.233Z,37.97
2017-08-11T00:09:26.696Z,37.50
2017-08-11T00:11:54.166Z,37.17
2017-08-11T00:14:22.276Z,34.27
2017-08-11T00:16:50.500Z,35.50
2017-08-11T00:19:17.970Z,35.33
2017-08-11T00:21:45.458Z,29.67
2017-08-11T00:24:12.926Z,31.50
2017-08-11T00:26:41.152Z,29.73
2017-08-11T00:29:08.640Z,31.53
2017-08-11T00:31:36.108Z,31.20
2017-08-11T00:34:03.566Z,31.67
2017-08-11T00:36:31.817Z,30.00
2017-08-11T00:38:59.289Z,27.40
2017-08-11T00:41:26.757Z,25.97
2017-08-11T00:43:54.988Z,28.53
2017-08-11T00:46:22.469Z,27.30
2017-08-11T00:48:49.931Z,28.20
2017-08-11T00:51:17.405Z,22.67
2017-08-11T00:53:45.652Z,24.60
2017-08-11T00:56:13.842Z,26.37
2017-08-11T00:58:41.960Z,20.00
2017-08-11T01:01:09.450Z,20.93
2017-08-11T01:03:36.917Z,22.67
2017-08-11T01:06:04.545Z,29.10
2017-08-11T01:08:32.026Z,20.40
2017-08-11T01:10:59.509Z,24.03
2017-08-11T01:13:27.737Z,22.00
2017-08-11T01:15:56.057Z,24.83
2017-08-11T01:18:24.399Z,21.00
2017-08-11T01:20:52.025Z,22.17
2017-08-11T01:23:19.498Z,22.70
2017-08-11T01:25:46.997Z,23.63
2017-08-11T01:28:14.473Z,25.63
2017-08-11T01:30:42.804Z,22.43
2017-08-11T01:33:10.309Z,24.07
2017-08-11T01:35:38.569Z,21.93
2017-08-11T01:38:06.041Z,26.20
2017-08-11T01:40:34.342Z,22.83
2017-08-11T01:43:01.807Z,26.87
2017-08-11T01:45:29.267Z,27.80
2017-08-11T01:47:56.741Z,22.37
2017-08-11T01:50:24.229Z,23.80
2017-08-11T01:52:51.886Z,22.87
2017-08-11T01:55:19.355Z,22.67
2017-08-11T01:57:47.597Z,24.53
2017-08-11T02:00:15.094Z,23.67
2017-08-11T02:02:43.449Z,25.43
2017-08-11T02:05:10.953Z,26.73
2017-08-11T02:07:38.418Z,22.73
2017-08-11T02:10:06.484Z,24.17
2017-08-11T02:12:33.970Z,22.73
2017-08-11T02:15:01.438Z,22.97
2017-08-11T02:17:28.993Z,19.77
2017-08-11T02:19:56.482Z,17.10
2017-08-11T02:22:24.713Z,18.17
2017-08-11T02:24:52.185Z,20.87
2017-08-11T02:27:19.649Z,19.00
2017-08-11T02:29:47.129Z,21.10
2017-08-11T02:32:15.361Z,22.17
2017-08-11T02:34:42.842Z,20.57
2017-08-11T02:37:10.306Z,22.03
2017-08-11T02:39:38.570Z,20.93
2017-08-11T02:42:06.033Z,24.03
2017-08-11T02:44:33.508Z,28.20
2017-08-11T02:47:01.776Z,25.60
2017-08-11T02:49:29.237Z,28.33
2017-08-11T02:51:57.456Z,26.80
2017-08-11T02:54:24.944Z,28.87
2017-08-11T02:56:52.435Z,26.03
2017-08-11T02:59:20.665Z,29.53
2017-08-11T03:01:48.153Z,28.77
2017-08-11T03:04:16.106Z,30.43
2017-08-11T03:06:43.572Z,26.23
2017-08-11T03:09:11.822Z,29.47
2017-08-11T03:11:39.289Z,32.87
2017-08-11T03:14:06.764Z,32.00
2017-08-11T03:16:35.101Z,39.10
2017-08-11T03:19:02.592Z,40.43
2017-08-11T03:21:30.055Z,40.73
2017-08-11T03:23:57.532Z,38.30
2017-08-11T03:26:25.014Z,31.70
2017-08-11T03:28:52.492Z,40.23
2017-08-11T03:31:19.969Z,40.10
2017-08-11T03:33:47.439Z,47.37
2017-08-11T03:36:14.913Z,56.50
2017-08-11T03:38:42.410Z,50.63
2017-08-11T03:41:09.906Z,48.43
2017-08-11T03:43:37.388Z,54.47
2017-08-11T03:46:04.851Z,52.03
2017-08-11T03:48:32.337Z,48.80
2017-08-11T03:50:59.816Z,63.57
2017-08-11T03:53:27.390Z,55.40
2017-08-11T03:55:55.634Z,53.07
2017-08-11T03:58:23.105Z,50.40
2017-08-11T04:00:50.703Z,48.67
2017-08-11T04:03:18.190Z,52.23
2017-08-11T04:05:45.682Z,56.00
2017-08-11T04:08:13.154Z,52.23
2017-08-11T04:10:41.419Z,43.33
2017-08-11T04:13:08.965Z,45.20
2017-08-11T04:15:36.433Z,48.83
2017-08-11T04:18:03.960Z,44.00
2017-08-11T04:20:31.418Z,46.30
2017-08-11T04:22:58.929Z,47.43
2017-08-11T04:25:27.258Z,43.97
2017-08-11T04:27:54.744Z,44.77
2017-08-11T04:30:22.245Z,35.60
2017-08-11T04:32:49.829Z,36.80
2017-08-11T04:35:17.325Z,36.13
2017-08-11T04:37:45.580Z,36.43
2017-08-11T04:40:13.045Z,38.23
2017-08-11T04:42:40.629Z,33.83
2017-08-11T04:45:08.873Z,35.33
2017-08-11T04:47:36.345Z,32.70
2017-08-11T04:50:03.826Z,38.67
2017-08-11T04:52:32.133Z,38.30
2017-08-11T04:54:59.617Z,39.00
2017-08-11T04:57:27.086Z,36.33
2017-08-11T04:59:54.572Z,34.37
2017-08-11T05:02:22.036Z,37.23
2017-08-11T05:04:49.521Z,37.33
2017-08-11T05:07:16.977Z,34.03
2017-08-11T05:09:44.562Z,43.90
2017-08-11T05:12:12.042Z,34.17
2017-08-11T05:14:39.508Z,33.23
2017-08-11T05:17:07.753Z,39.30
2017-08-11T05:19:35.384Z,34.47
2017-08-11T05:22:02.865Z,31.00
2017-08-11T05:24:30.338Z,32.53
2017-08-11T05:26:57.801Z,32.90
2017-08-11T05:29:26.043Z,35.23
2017-08-11T05:31:53.520Z,30.50
2017-08-11T05:34:20.998Z,29.47
2017-08-11T05:36:49.231Z,29.50
2017-08-11T05:39:16.721Z,27.10
2017-08-11T05:41:45.004Z,26.17
2017-08-11T05:44:12.464Z,29.00
2017-08-11T05:46:40.710Z,19.70
2017-08-11T05:49:08.661Z,19.17
2017-08-11T05:51:36.143Z,20.80
2017-08-11T05:54:03.624Z,21.17
2017-08-11T05:56:31.862Z,19.10
2017-08-11T05:58:59.342Z,17.40
2017-08-11T06:01:27.587Z,19.30
2017-08-11T06:03:55.061Z,17.17
2017-08-11T06:06:22.556Z,17.80
2017-08-11T06:08:50.042Z,17.23
2017-08-11T06:11:17.497Z,17.30
2017-08-11T06:13:44.985Z,18.63
2017-08-11T06:16:12.537Z,22.50
2017-08-11T06:18:40.025Z,19.17
2017-08-11T06:21:08.265Z,25.13
2017-08-11T06:23:35.754Z,21.47
2017-08-11T06:26:03.229Z,19.77
2017-08-11T06:28:31.569Z,19.30
2017-08-11T06:30:59.051Z,19.07
2017-08-11T06:33:27.281Z,17.07
2017-08-11T06:35:54.782Z,22.30
2017-08-11T06:38:23.205Z,20.30
2017-08-11T06:40:50.691Z,18.07
2017-08-11T06:43:18.220Z,22.90
2017-08-11T06:45:45.697Z,20.00
2017-08-11T06:48:13.184Z,21.87
2017-08-11T06:50:40.733Z,27.70
2017-08-11T06:53:08.262Z,26.37
2017-08-11T06:55:35.877Z,27.20
2017-08-11T06:58:04.130Z,22.07
2017-08-11T07:00:31.626Z,27.37
2017-08-11T07:03:00.161Z,22.33
2017-08-11T07:05:27.858Z,24.07
2017-08-11T07:07:55.355Z,23.10
2017-08-11T07:10:22.865Z,27.50
2017-08-11T07:12:50.357Z,25.00
2017-08-11T07:15:17.937Z,25.10
2017-08-11T07:17:45.410Z,28.27
2017-08-11T07:20:12.886Z,20.33
2017-08-11T07:22:41.332Z,22.13
2017-08-11T07:25:08.894Z,17.03
2017-08-11T07:27:36.378Z,20.10
2017-08-11T07:30:04.601Z,26.40
2017-08-11T07:32:33.037Z,22.57
2017-08-11T07:35:00.599Z,22.13
2017-08-11T07:37:28.834Z,18.47
2017-08-11T07:39:56.408Z,29.30
2017-08-11T07:42:23.889Z,22.97
2017-08-11T07:44:52.130Z,25.50
2017-08-11T07:47:19.605Z,37.60
2017-08-11T07:49:47.846Z,33.73
2017-08-11T07:52:15.333Z,33.77
2017-08-11T07:54:42.852Z,38.40
2017-08-11T07:57:10.353Z,34.87
2017-08-11T07:59:37.830Z,37.23
2017-08-11T08:02:05.294Z,37.10
2017-08-11T08:04:32.835Z,36.63
2017-08-11T08:07:01.093Z,37.07
2017-08-11T08:09:29.049Z,43.93
2017-08-11T08:11:56.517Z,31.17
2017-08-11T08:14:23.995Z,38.97
2017-08-11T08:16:52.285Z,39.70
2017-08-11T08:19:20.706Z,46.30
2017-08-11T08:21:48.186Z,38.50
2017-08-11T08:24:15.670Z,43.87
2017-08-11T08:26:43.925Z,35.83
2017-08-11T08:29:11.482Z,34.97
2017-08-11T08:31:38.941Z,41.77
2017-08-11T08:34:07.214Z,32.60
2017-08-11T08:36:34.778Z,31.50
2017-08-11T08:39:02.241Z,29.63
2017-08-11T08:41:30.474Z,38.57
2017-08-11T08:43:58.013Z,42.90
2017-08-11T08:46:25.484Z,42.03
2017-08-11T08:48:52.946Z,36.17
2017-08-11T08:51:20.459Z,42.63
2017-08-11T08:53:48.689Z,46.37
2017-08-11T08:56:16.185Z,43.33
2017-08-11T08:58:44.631Z,34.37
2017-08-11T09:01:12.105Z,34.57
2017-08-11T09:03:39.608Z,38.70
2017-08-11T09:06:07.097Z,35.33
2017-08-11T09:08:34.786Z,42.10
2017-08-11T09:11:03.213Z,41.23
2017-08-11T09:13:30.694Z,29.23
2017-08-11T09:15:58.839Z,27.07
2017-08-11T09:18:26.318Z,30.57
2017-08-11T09:20:53.860Z,29.73
2017-08-11T09:23:21.477Z,24.20
2017-08-11T09:26:02.468Z,28.43
2017-08-11T09:28:42.295Z,26.23
2017-08-11T09:31:22.505Z,24.73
2017-08-11T09:34:11.530Z,22.40
2017-08-11T09:36:39.932Z,19.20
2017-08-11T09:39:07.416Z,24.93
2017-08-11T09:41:34.907Z,22.50
2017-08-11T09:44:03.229Z,20.40
2017-08-11T09:46:30.721Z,19.80
2017-08-11T09:48:59.204Z,19.10
2017-08-11T09:51:26.869Z,18.83
2017-08-11T09:53:54.413Z,20.33
2017-08-11T09:56:21.873Z,11.80
2017-08-11T09:58:49.353Z,18.30
2017-08-11T10:01:17.665Z,18.30
2017-08-11T10:03:45.145Z,16.67
2017-08-11T10:06:12.630Z,11.20
2017-08-11T10:08:40.102Z,13.30
2017-08-11T10:11:08.353Z,13.73
2017-08-11T10:13:35.822Z,14.90
2017-08-11T10:16:03.296Z,15.90
2017-08-11T10:18:31.539Z,13.83
2017-08-11T10:20:59.009Z,12.37
2017-08-11T10:23:27.283Z,14.37
2017-08-11T10:25:54.845Z,13.93
2017-08-11T10:28:23.083Z,12.53
2017-08-11T10:30:50.567Z,13.30
2017-08-11T10:33:18.774Z,11.73
2017-08-11T10:35:47.007Z,11.17
2017-08-11T10:38:14.682Z,13.23
2017-08-11T10:40:42.148Z,11.20
2017-08-11T10:43:10.402Z,11.37
2017-08-11T10:45:37.889Z,11.57
2017-08-11T10:48:06.114Z,6.77
2017-08-11T10:50:33.599Z,13.43
2017-08-11T10:53:01.090Z,13.00
2017-08-11T10:55:28.567Z,17.13
2017-08-11T10:57:56.031Z,11.03
2017-08-11T11:00:23.598Z,11.47
2017-08-11T11:02:51.183Z,13.93
2017-08-11T11:05:18.649Z,12.20
2017-08-11T11:07:46.120Z,16.70
2017-08-11T11:10:14.345Z,12.60
2017-08-11T11:12:41.826Z,12.73
2017-08-11T11:15:09.353Z,15.07
2017-08-11T11:17:36.840Z,9.73
2017-08-11T11:20:04.318Z,13.70
2017-08-11T11:22:32.588Z,15.20
2017-08-11T11:25:00.049Z,13.07
2017-08-11T11:27:28.273Z,9.23
2017-08-11T11:29:55.745Z,11.80
2017-08-11T11:32:23.210Z,10.93
2017-08-11T11:34:50.695Z,13.47
2017-08-11T11:37:18.932Z,10.40
2017-08-11T11:39:46.394Z,7.90
2017-08-11T11:42:13.865Z,11.77
2017-08-11T11:44:41.322Z,12.57
2017-08-11T11:47:08.822Z,12.83
2017-08-11T11:49:36.284Z,13.27
2017-08-11T11:52:03.745Z,9.00
2017-08-11T11:54:31.216Z,8.00
2017-08-11T11:56:58.713Z,11.83
2017-08-11T11:59:27.837Z,9.73
2017-08-11T12:01:56.938Z,10.00
2017-08-11T12:04:26.072Z,10.27
2017-08-11T12:06:55.203Z,12.63
2017-08-11T12:09:24.321Z,11.50
2017-08-11T12:11:53.424Z,9.37
2017-08-11T12:14:22.544Z,10.40
2017-08-11T12:16:51.652Z,9.20
2017-08-11T12:19:20.785Z,9.70
2017-08-11T12:21:49.900Z,12.80
2017-08-11T12:24:19.007Z,11.70
2017-08-11T12:26:48.123Z,13.10
2017-08-11T12:29:17.295Z,15.70
2017-08-11T12:31:46.401Z,10.90
2017-08-11T12:34:15.528Z,10.90
2017-08-11T12:36:44.649Z,12.63
2017-08-11T12:39:13.770Z,8.50
2017-08-11T12:41:42.884Z,11.27
2017-08-11T12:44:12.016Z,10.70
2017-08-11T12:46:41.125Z,10.17
2017-08-11T12:49:10.331Z,9.43
2017-08-11T12:51:39.444Z,9.80
2017-08-11T12:54:08.548Z,9.37
2017-08-11T12:56:37.668Z,10.87
2017-08-11T12:59:06.773Z,15.03
2017-08-11T13:01:35.901Z,9.30
2017-08-11T13:04:05.012Z,7.70
2017-08-11T13:06:34.131Z,11.17
2017-08-11T13:09:03.260Z,11.10
2017-08-11T13:11:32.388Z,5.37
2017-08-11T13:14:01.528Z,10.33
2017-08-11T13:16:30.644Z,13.67
2017-08-11T13:18:59.798Z,12.20
2017-08-11T13:21:28.899Z,9.13
2017-08-11T13:23:58.008Z,8.40
2017-08-11T13:26:27.129Z,11.53
2017-08-11T13:28:56.240Z,8.83
2017-08-11T13:31:25.380Z,10.97
2017-08-11T13:33:54.712Z,9.23
2017-08-11T13:36:23.821Z,8.63
2017-08-11T13:38:53.124Z,11.90
2017-08-11T13:41:22.241Z,7.23
2017-08-11T13:43:51.349Z,14.73
2017-08-11T13:46:20.453Z,7.40
2017-08-11T13:48:49.577Z,10.40
2017-08-11T13:51:18.698Z,11.07
2017-08-11T13:53:47.818Z,10.47
2017-08-11T13:56:16.933Z,10.53
2017-08-11T13:58:46.058Z,6.03
2017-08-11T14:01:15.168Z,7.30
2017-08-11T14:03:44.288Z,9.23
2017-08-11T14:06:13.425Z,15.20
2017-08-11T14:08:42.545Z,8.83
2017-08-11T14:11:11.741Z,9.53
2017-08-11T14:13:40.861Z,9.63
2017-08-11T14:16:09.990Z,8.20
2017-08-11T14:18:39.098Z,8.73
2017-08-11T14:21:08.215Z,10.50
2017-08-11T14:23:43.161Z,9.90
2017-08-11T14:26:12.300Z,7.70
2017-08-11T14:28:41.431Z,12.33
2017-08-11T14:31:10.597Z,13.47
2017-08-11T14:33:39.717Z,8.67
2017-08-11T14:36:08.860Z,9.63
2017-08-11T14:38:37.989Z,11.17
2017-08-11T14:41:07.129Z,15.43
2017-08-11T14:43:36.248Z,9.20
2017-08-11T14:46:05.377Z,11.97
2017-08-11T14:48:34.499Z,10.07
2017-08-11T14:51:03.592Z,8.70
2017-08-11T14:53:32.717Z,10.23
2017-08-11T14:56:01.839Z,9.73
2017-08-11T14:58:31.189Z,8.20
2017-08-11T15:01:00.297Z,21.33
2017-08-11T15:03:29.409Z,10.13
2017-08-11T15:05:58.523Z,9.53
2017-08-11T15:08:27.781Z,17.23
2017-08-11T15:10:56.918Z,7.43
2017-08-11T15:13:26.117Z,13.80
2017-08-11T15:15:55.319Z,9.30
2017-08-11T15:18:24.464Z,8.70
2017-08-11T15:20:53.594Z,11.00
2017-08-11T15:23:22.717Z,7.43
2017-08-11T15:25:51.831Z,7.50
2017-08-11T15:28:20.968Z,8.57
2017-08-11T15:30:50.098Z,10.83
2017-08-11T15:33:19.268Z,8.03
2017-08-11T15:35:48.433Z,9.63
2017-08-11T15:38:17.597Z,12.13
2017-08-11T15:40:46.749Z,9.07
2017-08-11T15:43:15.853Z,5.17
2017-08-11T15:45:44.984Z,7.50
2017-08-11T15:48:14.106Z,11.20
2017-08-11T15:50:43.229Z,6.07
2017-08-11T15:53:12.348Z,9.77
2017-08-11T15:55:41.448Z,16.07
2017-08-11T15:58:10.612Z,10.00
2017-08-11T16:00:39.809Z,9.83
2017-08-11T16:03:08.978Z,6.37
2017-08-11T16:05:38.116Z,9.47
2017-08-11T16:08:08.064Z,7.17
2017-08-11T16:10:37.170Z,10.47
2017-08-11T16:13:06.344Z,7.70
2017-08-11T16:15:35.540Z,14.57
2017-08-11T16:18:04.662Z,9.20
2017-08-11T16:20:33.774Z,7.83
2017-08-11T16:23:03.176Z,8.00
2017-08-11T16:25:32.284Z,7.97
2017-08-11T16:28:01.433Z,10.30
2017-08-11T16:30:30.594Z,11.70
2017-08-11T16:32:59.728Z,10.97
2017-08-11T16:35:28.841Z,6.93
2017-08-11T16:37:57.971Z,135.97
2017-08-11T16:40:27.091Z,56.03
2017-08-11T16:42:56.246Z,108.03
2017-08-11T16:45:25.358Z,16.03
2017-08-11T16:47:54.495Z,10.30
2017-08-11T16:50:23.609Z,11.83
2017-08-11T16:52:52.752Z,10.45
2017-08-11T16:55:21.870Z,7.07
2017-08-11T16:57:50.989Z,11.90
2017-08-11T17:00:20.124Z,10.03
